Time;durP1;ratioP1;P1;durP2;ratioP2;P2;SDS_P1;SDS_P2;PMS_P1;PMS_P2;Temp;Humidity;BMP_temperature;BMP_pressure;BME280_temperature;BME280_humidity;BME280_pressure;Samples;Min_cycle;Max_cycle;Signal;HPM_P1;HPM_P2
2021/03/22 00:00:30;;;;;;;19.03;8.50;;;;;;;6.65;69.36;96620.88;5053382;28;20229;-61
2021/03/22 00:02:56;;;;;;;15.37;8.80;;;;;;;6.52;69.47;96620.81;5053351;28;20163;-60
2021/03/22 00:05:22;;;;;;;19.87;8.43;;;;;;;6.50;70.10;96621.00;5053192;28;20812;-62
2021/03/22 00:07:50;;;;;;;17.63;7.77;;;;;;;6.40;70.96;96630.97;5052697;28;20274;-61
2021/03/22 00:10:18;;;;;;;21.03;8.77;;;;;;;6.45;71.19;96627.81;5058308;28;20798;-61
2021/03/22 00:12:44;;;;;;;16.40;7.80;;;;;;;6.49;70.94;96622.00;5072034;28;20407;-61
2021/03/22 00:15:10;;;;;;;18.87;8.53;;;;;;;6.54;70.30;96622.22;5053064;28;20430;-61
2021/03/22 00:17:35;;;;;;;16.67;9.10;;;;;;;6.61;70.09;96614.41;5052616;28;20171;-62
2021/03/22 00:20:02;;;;;;;19.57;7.70;;;;;;;6.41;71.07;96616.13;5053060;28;20805;-61
2021/03/22 00:22:28;;;;;;;16.43;7.63;;;;;;;6.48;70.28;96616.97;5053002;28;20212;-62
2021/03/22 00:24:53;;;;;;;17.03;8.00;;;;;;;6.62;70.07;96619.44;5056832;28;20853;-62
2021/03/22 00:27:18;;;;;;;21.63;7.90;;;;;;;6.38;70.81;96611.31;5061699;28;20182;-62
2021/03/22 00:29:44;;;;;;;17.53;7.10;;;;;;;6.51;70.82;96624.41;5072103;28;20254;-60
2021/03/22 00:32:09;;;;;;;19.77;7.70;;;;;;;6.57;70.48;96621.03;5072987;28;20228;-62
2021/03/22 00:34:35;;;;;;;15.60;7.07;;;;;;;6.58;71.30;96614.78;5072792;28;20217;-61
2021/03/22 00:37:00;;;;;;;12.30;6.53;;;;;;;6.74;69.45;96612.66;5062469;28;20209;-62
2021/03/22 00:39:26;;;;;;;20.30;8.43;;;;;;;6.79;70.54;96618.13;5072095;28;20213;-61
2021/03/22 00:41:51;;;;;;;17.67;7.73;;;;;;;6.38;71.52;96625.13;5058633;28;20171;-61
2021/03/22 00:44:16;;;;;;;17.83;7.90;;;;;;;6.52;71.51;96616.41;5056765;28;20532;-62
2021/03/22 00:46:42;;;;;;;20.60;7.30;;;;;;;6.52;71.13;96612.97;5071944;28;20225;-62
2021/03/22 00:49:07;;;;;;;21.97;7.67;;;;;;;6.67;70.40;96618.84;5073307;28;20627;-61
2021/03/22 00:51:33;;;;;;;15.00;6.57;;;;;;;6.61;70.36;96617.84;5061805;28;20167;-61
2021/03/22 00:53:58;;;;;;;17.33;7.40;;;;;;;6.69;70.12;96614.25;5076462;28;20678;-62
2021/03/22 00:56:24;;;;;;;23.17;7.20;;;;;;;6.68;69.23;96616.06;5071409;28;20649;-62
2021/03/22 00:58:49;;;;;;;25.33;7.43;;;;;;;6.52;70.49;96610.38;5076150;28;20571;-61
2021/03/22 01:01:15;;;;;;;15.33;6.80;;;;;;;6.63;70.26;96610.59;5070149;28;20208;-60
2021/03/22 01:03:40;;;;;;;18.10;7.87;;;;;;;6.76;69.75;96612.44;5076426;28;20174;-62
2021/03/22 01:06:07;;;;;;;16.37;7.60;;;;;;;6.83;70.13;96611.47;5068393;28;20167;-61
2021/03/22 01:08:36;;;;;;;16.60;7.37;;;;;;;6.92;69.37;96602.47;5065674;28;20183;-60
2021/03/22 01:11:14;;;;;;;16.93;7.33;;;;;;;6.86;69.67;96598.06;5056237;28;20505;-61
2021/03/22 01:13:53;;;;;;;16.73;7.00;;;;;;;6.89;69.04;96605.50;5056227;28;20413;-62
2021/03/22 01:16:26;;;;;;;17.50;6.53;;;;;;;6.69;69.91;96593.34;5056790;28;20966;-61
2021/03/22 01:18:54;;;;;;;21.90;7.33;;;;;;;6.59;69.81;96598.16;5058958;28;20526;-62
2021/03/22 01:21:28;;;;;;;17.77;6.67;;;;;;;6.86;68.64;96585.00;5059029;28;20502;-61
2021/03/22 01:23:54;;;;;;;23.23;6.27;;;;;;;6.69;69.41;96593.34;5059837;28;20421;-61
2021/03/22 01:26:24;;;;;;;16.27;6.17;;;;;;;6.72;67.95;96592.97;5055488;28;20402;-62
2021/03/22 01:28:50;;;;;;;14.73;6.70;;;;;;;6.73;69.19;96602.41;5055692;28;20440;-61
2021/03/22 01:31:16;;;;;;;24.17;6.23;;;;;;;6.86;68.44;96587.59;5068762;28;20929;-61
2021/03/22 01:33:44;;;;;;;21.20;6.50;;;;;;;6.86;68.25;96582.38;5061368;28;20487;-61
2021/03/22 01:36:13;;;;;;;20.60;6.97;;;;;;;7.01;67.81;96582.22;5057879;28;20186;-61
2021/03/22 01:38:40;;;;;;;17.47;6.63;;;;;;;6.85;67.81;96587.78;5074062;28;20532;-62
2021/03/22 01:41:40;;;;;;;18.77;6.80;;;;;;;6.95;67.43;96580.38;5075675;28;20401;-62
2021/03/22 01:44:14;;;;;;;14.00;6.07;;;;;;;6.94;67.52;96581.38;5074386;28;20499;-64
2021/03/22 01:46:47;;;;;;;21.27;5.90;;;;;;;6.65;69.38;96582.50;5054709;28;20425;-61
2021/03/22 01:49:14;;;;;;;12.77;6.87;;;;;;;6.82;68.32;96582.97;5054178;28;20431;-61
2021/03/22 01:51:41;;;;;;;14.07;6.30;;;;;;;6.91;68.18;96581.78;5056034;28;20417;-61
2021/03/22 01:54:08;;;;;;;15.17;5.80;;;;;;;6.61;68.99;96578.69;5069565;28;20458;-61
2021/03/22 01:56:48;;;;;;;19.80;7.40;;;;;;;6.75;68.51;96571.69;5074502;28;20851;-62
2021/03/22 01:59:16;;;;;;;20.07;6.83;;;;;;;7.04;67.31;96571.38;5073049;28;20505;-62
2021/03/22 02:01:47;;;;;;;15.80;6.20;;;;;;;7.04;67.29;96572.19;5069011;28;20975;-62
2021/03/22 02:04:13;;;;;;;17.90;5.50;;;;;;;6.87;68.09;96567.50;5055163;28;20394;-62
2021/03/22 02:06:38;;;;;;;18.20;6.37;;;;;;;6.91;68.03;96576.56;5064329;28;20429;-60
2021/03/22 02:09:05;;;;;;;21.90;6.40;;;;;;;7.03;67.44;96572.34;5070331;28;20444;-62
2021/03/22 02:11:33;;;;;;;16.93;5.73;;;;;;;6.79;nan;96570.31;5075700;28;20172;-61
2021/03/22 02:14:02;;;;;;;16.13;5.90;;;;;;;6.99;67.81;96579.78;5074678;28;20512;-61
2021/03/22 02:16:55;;;;;;;16.20;5.40;;;;;;;6.59;68.63;96578.06;5074745;28;20496;-60
2021/03/22 02:19:40;;;;;;;17.90;6.07;;;;;;;6.72;68.35;96579.94;5073421;28;20485;-61
2021/03/22 02:22:33;;;;;;;17.00;6.60;;;;;;;6.81;68.67;96578.75;5067387;28;20912;-61
2021/03/22 02:24:58;;;;;;;20.23;6.00;;;;;;;6.81;68.68;96579.53;5055515;28;20447;-61
2021/03/22 02:27:54;;;;;;;16.23;6.20;;;;;;;6.87;68.35;96570.13;5054739;28;20410;-61
2021/03/22 02:30:46;;;;;;;13.20;5.27;;;;;;;6.95;67.83;96578.59;5063420;28;20213;-62
2021/03/22 02:33:49;;;;;;;13.43;5.30;;;;;;;6.87;68.66;96583.97;5072896;28;20417;-62
2021/03/22 02:36:25;;;;;;;19.20;5.50;;;;;;;6.80;69.15;96584.97;5057934;28;20522;-61
2021/03/22 02:38:56;;;;;;;19.17;5.80;;;;;;;6.79;68.69;96593.81;5067118;28;20505;-62
2021/03/22 02:41:27;;;;;;;16.00;5.13;;;;;;;6.91;68.33;96593.03;5074849;28;20823;-62
2021/03/22 02:44:16;;;;;;;14.70;5.37;;;;;;;6.96;67.38;96595.03;5074832;28;20404;-61
2021/03/22 02:46:41;;;;;;;16.60;5.00;;;;;;;6.86;66.92;96589.41;5055961;28;20418;-61
2021/03/22 02:49:11;;;;;;;23.10;5.90;;;;;;;6.66;68.47;96594.56;5059382;28;20440;-61
2021/03/22 02:51:42;;;;;;;18.20;4.93;;;;;;;6.61;68.48;96589.13;5058992;28;20175;-61
2021/03/22 02:54:13;;;;;;;17.13;4.87;;;;;;;6.73;68.09;96591.97;5074377;28;20775;-62
2021/03/22 02:57:04;;;;;;;14.30;4.83;;;;;;;6.70;67.57;96582.75;5074102;28;20401;-62
2021/03/22 02:59:53;;;;;;;16.17;5.13;;;;;;;6.61;68.31;96593.53;5064868;28;20811;-61
2021/03/22 03:02:19;;;;;;;15.87;4.03;;;;;;;6.41;67.64;96593.47;5053712;28;20922;-62
2021/03/22 03:04:45;;;;;;;17.23;5.00;;;;;;;6.52;68.20;96598.13;5054375;28;20489;-61
2021/03/22 03:07:19;;;;;;;11.97;4.77;;;;;;;6.49;67.43;96587.25;5057300;28;20183;-61
2021/03/22 03:09:44;;;;;;;16.70;4.90;;;;;;;6.32;68.88;96585.97;5072697;28;20842;-61
2021/03/22 03:12:17;;;;;;;13.30;4.50;;;;;;;6.34;68.16;96586.59;5071623;28;20508;-62
2021/03/22 03:14:46;;;;;;;20.40;5.07;;;;;;;6.19;68.70;96597.16;5073710;28;20179;-62
2021/03/22 03:17:11;;;;;;;18.93;5.40;;;;;;;6.34;68.14;96591.81;5063019;28;20438;-63
2021/03/22 03:19:37;;;;;;;23.07;5.50;;;;;;;6.40;68.48;96598.84;5052594;28;20964;-61
2021/03/22 03:22:04;;;;;;;17.77;4.53;;;;;;;6.25;68.20;96602.41;5066152;28;20179;-61
2021/03/22 03:24:29;;;;;;;20.73;5.17;;;;;;;5.99;69.13;96604.06;5073877;28;20197;-61
2021/03/22 03:26:55;;;;;;;11.00;3.80;;;;;;;6.12;69.62;96598.91;5072356;28;20505;-61
2021/03/22 03:29:20;;;;;;;15.50;5.17;;;;;;;6.15;68.67;96608.97;5071562;28;20203;-63
2021/03/22 03:31:46;;;;;;;13.20;5.30;;;;;;;6.38;68.32;96616.53;5071232;28;20177;-61
2021/03/22 03:34:11;;;;;;;17.63;4.73;;;;;;;6.47;67.13;96613.53;5073370;28;20676;-60
2021/03/22 03:36:37;;;;;;;21.90;5.20;;;;;;;6.24;67.73;96619.06;5065760;28;20596;-61
2021/03/22 03:39:04;;;;;;;15.33;5.40;;;;;;;6.19;67.67;96612.81;5053616;28;20195;-61
2021/03/22 03:41:30;;;;;;;17.50;5.17;;;;;;;6.40;67.47;96619.72;5053753;28;20204;-61
2021/03/22 03:43:56;;;;;;;15.03;4.90;;;;;;;6.49;67.38;96614.16;5055162;28;20421;-62
2021/03/22 03:46:22;;;;;;;19.63;4.20;;;;;;;6.52;66.96;96618.19;5073472;28;20184;-62
2021/03/22 03:48:47;;;;;;;13.50;4.10;;;;;;;6.44;66.45;96613.94;5070566;28;20545;-61
2021/03/22 03:51:12;;;;;;;11.60;3.97;;;;;;;6.59;66.37;96609.41;5072988;28;20174;-62
2021/03/22 03:53:38;;;;;;;22.53;4.90;;;;;;;6.56;66.08;96617.59;5058583;28;20204;-62
2021/03/22 03:56:04;;;;;;;14.50;4.20;;;;;;;6.43;67.06;96612.34;5059139;28;20599;-61
2021/03/22 03:58:29;;;;;;;19.23;5.67;;;;;;;6.42;67.40;96612.50;5053244;28;20217;-61
2021/03/22 04:00:55;;;;;;;19.20;4.07;;;;;;;6.46;67.25;96608.53;5064394;28;20451;-62
2021/03/22 04:03:25;;;;;;;19.77;4.23;;;;;;;6.57;66.66;96610.59;5073592;28;20209;-61
2021/03/22 04:05:57;;;;;;;15.77;5.20;;;;;;;6.47;67.33;96615.38;5056563;28;20174;-64
2021/03/22 04:08:23;;;;;;;10.20;3.70;;;;;;;6.45;67.42;96610.31;5064248;28;20442;-61
2021/03/22 04:10:50;;;;;;;22.63;5.03;;;;;;;6.32;67.64;96615.50;5053308;28;20509;-60
2021/03/22 04:13:16;;;;;;;14.20;3.57;;;;;;;6.12;68.78;96620.56;5067486;28;20559;-62
2021/03/22 04:15:41;;;;;;;15.60;3.90;;;;;;;5.95;68.93;96621.88;5061922;28;20881;-61
2021/03/22 04:18:07;;;;;;;9.83;4.10;;;;;;;6.02;69.69;96620.13;5052819;28;20198;-61
2021/03/22 04:20:32;;;;;;;13.77;4.23;;;;;;;5.98;69.73;96618.06;5058933;28;20195;-61
2021/03/22 04:22:57;;;;;;;14.60;3.90;;;;;;;6.22;68.66;96621.06;5053315;28;20183;-61
2021/03/22 04:25:23;;;;;;;13.50;5.03;;;;;;;6.15;69.39;96614.19;5055886;28;20311;-60
2021/03/22 04:27:48;;;;;;;26.73;4.43;;;;;;;6.31;68.29;96618.28;5068226;28;20194;-61
2021/03/22 04:30:14;;;;;;;13.33;3.80;;;;;;;6.18;68.05;96622.44;5053198;28;20166;-61
2021/03/22 04:32:39;;;;;;;18.40;5.27;;;;;;;6.20;68.82;96622.22;5057076;28;20258;-61
2021/03/22 04:35:06;;;;;;;11.63;4.07;;;;;;;6.14;68.66;96623.78;5068941;28;20240;-61
2021/03/22 04:37:31;;;;;;;10.70;3.90;;;;;;;6.38;69.30;96624.34;5072002;28;20175;-61
2021/03/22 04:39:57;;;;;;;11.80;4.27;;;;;;;6.39;68.20;96625.94;5072799;28;20996;-61
2021/03/22 04:42:22;;;;;;;13.13;4.43;;;;;;;6.46;68.10;96630.22;5068495;28;20254;-61
2021/03/22 04:44:47;;;;;;;17.33;5.40;;;;;;;6.36;68.32;96626.34;5054606;28;20187;-59
2021/03/22 04:47:13;;;;;;;15.07;4.07;;;;;;;6.17;68.63;96633.88;5062712;28;20217;-61
2021/03/22 04:49:38;;;;;;;16.30;5.17;;;;;;;6.33;68.46;96640.56;5072641;28;20199;-61
2021/03/22 04:52:04;;;;;;;17.30;4.63;;;;;;;6.35;68.13;96637.75;5072768;28;20175;-61
2021/03/22 04:54:29;;;;;;;14.73;4.27;;;;;;;6.43;68.03;96635.00;5069137;28;20176;-62
2021/03/22 04:56:55;;;;;;;17.77;3.60;;;;;;;6.53;67.98;96630.22;5063533;28;20421;-62
2021/03/22 04:59:20;;;;;;;18.03;5.10;;;;;;;6.59;66.59;96630.28;5068951;28;20218;-61
2021/03/22 05:01:46;;;;;;;20.67;4.07;;;;;;;6.63;67.66;96634.09;5064151;28;20185;-62
2021/03/22 05:04:11;;;;;;;14.37;4.10;;;;;;;6.49;66.91;96634.22;5052837;28;20171;-61
2021/03/22 05:06:36;;;;;;;12.10;4.20;;;;;;;6.42;67.45;96628.16;5072172;28;20206;-61
2021/03/22 05:09:02;;;;;;;19.80;4.70;;;;;;;6.44;67.32;96640.03;5072271;28;20198;-61
2021/03/22 05:11:28;;;;;;;17.03;4.20;;;;;;;6.47;67.05;96636.25;5069251;28;20220;-61
2021/03/22 05:13:53;;;;;;;14.83;5.37;;;;;;;6.55;66.43;96636.06;5063193;28;20170;-61
2021/03/22 05:16:19;;;;;;;13.67;4.13;;;;;;;6.57;66.69;96645.31;5065421;28;20175;-61
2021/03/22 05:18:44;;;;;;;14.47;5.40;;;;;;;6.59;65.94;96648.56;5052718;28;20226;-61
2021/03/22 05:21:10;;;;;;;12.97;3.87;;;;;;;6.44;66.24;96645.25;5052752;28;20280;-62
2021/03/22 05:23:37;;;;;;;15.17;4.27;;;;;;;6.55;66.00;96654.34;5052786;28;20636;-61
2021/03/22 05:26:05;;;;;;;16.33;4.43;;;;;;;6.32;65.25;96654.63;5061073;28;20204;-61
2021/03/22 05:28:32;;;;;;;13.90;3.80;;;;;;;6.42;66.28;96654.25;5076050;28;20436;-61
2021/03/22 05:30:58;;;;;;;14.13;4.13;;;;;;;6.47;64.78;96652.69;5073057;28;20972;-61
2021/03/22 05:33:24;;;;;;;10.73;4.30;;;;;;;6.44;66.05;96658.31;5076140;28;20409;-60
2021/03/22 05:35:57;;;;;;;10.97;3.93;;;;;;;6.40;65.48;96657.06;5075066;28;20439;-61
2021/03/22 05:38:24;;;;;;;14.53;3.90;;;;;;;6.15;65.99;96658.53;5075331;28;20455;-63
2021/03/22 05:40:54;;;;;;;13.00;3.60;;;;;;;6.29;66.70;96659.44;5073536;28;20915;-61
2021/03/22 05:43:47;;;;;;;12.30;3.53;;;;;;;6.31;64.92;96665.22;5076001;28;20407;-61
2021/03/22 05:46:37;;;;;;;10.33;3.90;;;;;;;6.36;65.67;96665.47;5073822;28;20457;-62
2021/03/22 05:49:35;;;;;;;12.80;3.53;;;;;;;6.42;66.06;96662.91;5074451;28;20529;-61
2021/03/22 05:52:21;;;;;;;11.77;3.40;;;;;;;6.38;65.32;96671.31;5072012;28;20897;-61
2021/03/22 05:55:01;;;;;;;15.17;4.20;;;;;;;6.33;66.57;96668.47;5075585;28;20511;-61
2021/03/22 05:57:53;;;;;;;8.40;3.00;;;;;;;6.25;65.51;96674.63;5074851;28;20415;-62
2021/03/22 06:00:36;;;;;;;17.60;3.87;;;;;;;6.19;65.96;96667.59;5071208;28;20524;-61
2021/03/22 06:03:14;;;;;;;9.73;3.73;;;;;;;6.06;66.22;96678.72;5075620;28;20812;-61
2021/03/22 06:05:48;;;;;;;12.90;4.43;;;;;;;6.11;66.92;96673.75;5065954;28;20425;-61
2021/03/22 06:08:17;;;;;;;10.63;3.17;;;;;;;6.27;66.63;96677.06;5072437;28;20462;-61
2021/03/22 06:10:50;;;;;;;11.77;4.20;;;;;;;6.40;65.34;96683.16;5062904;28;20471;-61
2021/03/22 06:13:16;;;;;;;11.70;3.30;;;;;;;6.30;66.07;96685.31;5055448;28;20458;-61
2021/03/22 06:16:07;;;;;;;10.07;3.40;;;;;;;6.28;66.19;96678.66;5065651;28;20451;-61
2021/03/22 06:18:48;;;;;;;15.10;4.00;;;;;;;6.34;67.00;96683.13;5075188;28;20438;-61
2021/03/22 06:21:15;;;;;;;14.90;4.50;;;;;;;6.40;67.42;96679.75;5073559;28;20459;-62
2021/03/22 06:23:47;;;;;;;12.47;4.07;;;;;;;6.34;68.00;96688.34;5055052;28;20406;-62
2021/03/22 06:26:18;;;;;;;19.43;3.73;;;;;;;6.16;67.66;96694.84;5055887;28;20977;-60
2021/03/22 06:28:44;;;;;;;12.80;5.13;;;;;;;6.30;67.85;96695.75;5066823;28;20528;-61
2021/03/22 06:31:14;;;;;;;16.23;4.40;;;;;;;6.28;68.13;96691.72;5071209;28;20427;-60
2021/03/22 06:33:42;;;;;;;17.53;4.00;;;;;;;6.15;68.43;96687.22;5070635;28;20515;-60
2021/03/22 06:36:11;;;;;;;14.07;5.53;;;;;;;6.15;67.82;96700.25;5068908;28;20426;-61
2021/03/22 06:38:37;;;;;;;16.50;4.50;;;;;;;6.16;69.05;96697.44;5074475;28;20471;-60
2021/03/22 06:41:32;;;;;;;13.07;4.97;;;;;;;5.99;70.33;96696.13;5074886;28;20499;-60
2021/03/22 06:44:02;;;;;;;9.77;4.10;;;;;;;6.08;69.25;96695.00;5074760;28;20402;-59
2021/03/22 06:46:28;;;;;;;17.70;4.50;;;;;;;5.88;70.35;96701.03;5074273;28;20409;-59
2021/03/22 06:49:01;;;;;;;23.70;4.77;;;;;;;6.12;69.43;96701.44;5073108;28;20836;-59
2021/03/22 06:51:28;;;;;;;11.50;3.57;;;;;;;6.12;69.13;96706.63;5054562;28;20182;-60
2021/03/22 06:53:58;;;;;;;16.50;4.33;;;;;;;5.98;70.09;96704.13;5067757;28;20420;-59
2021/03/22 06:56:34;;;;;;;20.83;5.33;;;;;;;5.97;70.68;96708.53;5074057;28;20777;-59
2021/03/22 06:59:11;;;;;;;13.17;4.30;;;;;;;6.15;70.04;96710.69;5074166;28;20529;-59
2021/03/22 07:01:38;;;;;;;9.57;3.60;;;;;;;6.24;nan;96720.81;5065083;28;20425;-59
2021/03/22 07:48:53;;;;;;;14.93;3.70;;;;;;;5.97;71.49;96737.22;5151791;27;20577;-64
2021/03/22 07:51:27;;;;;;;21.93;5.43;;;;;;;6.16;70.86;96736.56;5152468;27;20496;-64
2021/03/22 07:53:55;;;;;;;13.90;5.20;;;;;;;6.39;69.07;96743.38;5152294;27;20403;-65
2021/03/22 07:56:53;;;;;;;12.30;3.70;;;;;;;6.33;68.41;96749.34;5149018;27;21019;-58
2021/03/22 07:59:31;;;;;;;12.70;3.93;;;;;;;6.35;68.45;96747.34;5135154;27;20521;-59
2021/03/22 08:02:29;;;;;;;9.17;3.30;;;;;;;6.17;67.88;96753.84;5141394;27;20601;-59
2021/03/22 08:05:18;;;;;;;17.50;5.00;;;;;;;6.30;67.09;96744.50;5145172;27;20447;-65
2021/03/22 08:08:09;;;;;;;6.27;3.10;;;;;;;6.50;66.93;96750.69;5142172;27;20464;-66
2021/03/22 08:10:43;;;;;;;8.27;3.40;;;;;;;6.65;66.67;96756.63;5142353;27;20420;-58
2021/03/22 08:13:30;;;;;;;9.37;2.93;;;;;;;6.61;66.06;96758.81;5151733;27;20397;-65
2021/03/22 08:15:58;;;;;;;8.07;2.40;;;;;;;6.58;66.30;96753.13;5143293;27;20445;-59
2021/03/22 08:18:33;;;;;;;8.93;2.53;;;;;;;6.78;65.77;96765.31;5150404;27;20945;-65
2021/03/22 08:21:36;;;;;;;16.67;5.87;;;;;;;6.97;64.81;96771.66;5135455;27;20418;-59
2021/03/22 08:24:18;;;;;;;12.70;4.00;;;;;;;6.98;63.48;96773.28;5080098;28;20978;-59
2021/03/22 08:26:56;;;;;;;12.83;2.67;;;;;;;6.95;63.03;96784.09;5130514;27;20667;-64
2021/03/22 08:29:30;;;;;;;10.73;3.10;;;;;;;6.90;63.90;96779.44;5145306;27;20445;-66
2021/03/22 08:32:32;;;;;;;7.67;2.73;;;;;;;6.49;65.87;96785.59;5147792;27;20405;-64
2021/03/22 08:35:25;;;;;;;10.60;3.10;;;;;;;6.60;66.40;96787.69;5138977;27;20413;-59
2021/03/22 08:37:58;;;;;;;8.70;2.70;;;;;;;6.57;66.37;96788.06;5132517;27;20449;-59
2021/03/22 08:41:02;;;;;;;7.73;3.13;;;;;;;6.61;66.30;96794.53;5133922;27;20417;-59
2021/03/22 08:43:56;;;;;;;10.67;4.73;;;;;;;6.67;66.55;96793.75;5144505;27;20425;-58
2021/03/22 08:46:28;;;;;;;14.63;3.20;;;;;;;6.73;65.46;96793.81;5143905;27;20527;-60
2021/03/22 08:48:54;;;;;;;12.47;2.73;;;;;;;6.90;65.65;96799.56;5117322;27;20443;-59
2021/03/22 08:51:28;;;;;;;12.03;3.50;;;;;;;7.15;63.76;96803.31;5116813;27;20416;-59
2021/03/22 08:53:56;;;;;;;11.10;3.60;;;;;;;7.25;64.22;96801.97;5124105;27;20415;-59
2021/03/22 08:56:30;;;;;;;10.70;3.70;;;;;;;7.31;64.48;96797.75;5135219;27;20529;-56
2021/03/22 08:59:00;;;;;;;13.50;3.17;;;;;;;7.34;64.94;96802.59;5125151;27;20972;-58
2021/03/22 09:01:38;;;;;;;8.57;3.10;;;;;;;7.22;63.91;96806.75;5137224;27;20922;-58
2021/03/22 09:04:29;;;;;;;16.50;6.80;;;;;;;7.35;63.76;96803.41;5137041;27;20952;-57
2021/03/22 09:07:00;;;;;;;9.97;3.20;;;;;;;7.32;63.65;96808.00;5116272;27;20425;-61
2021/03/22 09:09:29;;;;;;;9.20;3.00;;;;;;;7.37;63.34;96807.44;5117400;27;20529;-59
2021/03/22 09:11:56;;;;;;;9.63;2.53;;;;;;;7.50;62.46;96819.78;5126599;27;20439;-58
2021/03/22 09:14:27;;;;;;;6.70;2.50;;;;;;;7.58;62.19;96809.94;5136791;27;20429;-57
2021/03/22 09:16:54;;;;;;;11.50;2.73;;;;;;;7.79;61.89;96816.88;5136434;27;20446;-58
2021/03/22 09:19:19;;;;;;;8.93;2.20;;;;;;;7.69;60.96;96819.84;5136427;27;20430;-60
2021/03/22 09:21:55;;;;;;;6.57;2.23;;;;;;;7.71;60.81;96820.44;5136680;27;20766;-57
2021/03/22 09:27:24;;;;;;;7.50;2.77;;;;;;;7.63;60.69;96823.22;5120647;27;20465;-60
2021/03/22 09:30:02;;;;;;;6.73;2.20;;;;;;;7.54;62.21;96832.25;5115794;28;20448;-59
2021/03/22 09:32:36;;;;;;;10.47;3.00;;;;;;;7.43;62.12;96832.00;5116299;28;20404;-58
2021/03/22 09:35:13;;;;;;;14.40;2.93;;;;;;;7.58;62.64;96832.66;5127165;27;20478;-57
2021/03/22 09:37:48;;;;;;;7.23;3.03;;;;;;;7.53;62.28;96835.88;5115299;28;20460;-57
2021/03/22 09:40:19;;;;;;;9.17;4.60;;;;;;;7.43;63.20;96838.03;5129544;27;20506;-57
2021/03/22 09:43:21;;;;;;;10.73;3.93;;;;;;;7.37;63.45;96833.59;5120036;27;20451;-59
2021/03/22 09:45:50;;;;;;;8.03;4.20;;;;;;;7.51;64.25;96831.81;5102267;28;20476;-59
2021/03/22 09:48:25;;;;;;;7.07;3.37;;;;;;;7.37;64.68;96825.75;5115135;28;20449;-59
2021/03/22 09:51:03;;;;;;;8.33;4.07;;;;;;;7.38;63.20;96827.34;5115876;28;20411;-59
2021/03/22 09:53:53;;;;;;;15.47;3.73;;;;;;;7.31;64.09;96826.50;5115744;27;20791;-58
2021/03/22 09:56:35;;;;;;;12.83;3.40;;;;;;;7.18;63.57;96836.88;5135928;27;20931;-58
2021/03/22 09:59:29;;;;;;;6.07;4.43;;;;;;;7.17;64.89;96830.06;5135296;27;20508;-57
2021/03/22 10:01:57;;;;;;;4.23;2.40;;;;;;;7.18;64.37;96832.47;5124158;27;20498;-56
2021/03/22 10:04:36;;;;;;;5.10;2.80;;;;;;;7.49;63.90;96829.41;5115228;28;20400;-60
2021/03/22 10:07:04;;;;;;;5.67;2.93;;;;;;;7.43;63.86;96832.78;5115021;28;20485;-59
2021/03/22 10:10:20;;;;;;;10.00;3.70;;;;;;;7.50;63.79;96827.59;5126409;27;20923;-62
2021/03/22 10:12:55;;;;;;;7.70;2.40;;;;;;;7.57;62.75;96831.88;5071744;28;20813;-63
2021/03/22 10:15:30;;;;;;;9.53;2.97;;;;;;;7.79;62.84;96830.72;5113365;28;20424;-56
2021/03/22 10:18:14;;;;;;;5.50;3.10;;;;;;;7.97;60.24;96828.34;5114562;28;20469;-61
2021/03/22 10:20:45;;;;;;;6.97;2.57;;;;;;;7.98;61.11;96834.41;5115789;27;20426;-60
2021/03/22 10:23:25;;;;;;;5.60;2.10;;;;;;;8.06;61.08;96835.03;5115416;27;20417;-59
2021/03/22 10:26:01;;;;;;;9.03;2.87;;;;;;;8.35;58.94;96830.50;5127942;27;20793;-59
2021/03/22 10:28:26;;;;;;;9.40;2.87;;;;;;;8.41;58.85;96829.69;5114541;27;20422;-60
2021/03/22 10:31:10;;;;;;;7.57;2.73;;;;;;;8.29;58.47;96829.47;5120738;27;20436;-60
2021/03/22 10:33:36;;;;;;;6.53;2.83;;;;;;;8.25;59.34;96843.97;5135250;27;20169;-64
2021/03/22 10:36:03;;;;;;;6.67;2.70;;;;;;;8.38;58.90;96836.13;5135151;27;20446;-65
2021/03/22 10:38:32;;;;;;;8.77;2.90;;;;;;;8.47;59.13;96831.50;5131778;27;20536;-64
2021/03/22 10:41:00;;;;;;;8.47;2.90;;;;;;;8.51;58.56;96838.75;5114679;28;20530;-60
2021/03/22 10:43:29;;;;;;;9.40;3.23;;;;;;;8.37;59.81;96833.72;5114499;28;20425;-60
2021/03/22 10:45:59;;;;;;;3.43;2.20;;;;;;;8.24;59.64;96840.53;5115636;27;20421;-60
2021/03/22 10:48:25;;;;;;;7.47;3.00;;;;;;;8.32;59.55;96837.72;5114194;28;20931;-64
2021/03/22 10:51:05;;;;;;;7.00;3.23;;;;;;;8.28;59.96;96836.50;5114500;28;20489;-64
2021/03/22 10:53:32;;;;;;;10.70;3.50;;;;;;;8.18;61.29;96838.69;5114542;28;20164;-60
2021/03/22 10:56:16;;;;;;;7.33;3.17;;;;;;;8.33;61.42;96830.69;5114373;28;20413;-64
2021/03/22 10:58:42;;;;;;;6.43;3.10;;;;;;;8.27;60.68;96840.16;5131339;27;20454;-60
2021/03/22 11:01:08;;;;;;;6.53;2.90;;;;;;;8.13;61.37;96837.69;5132183;27;20410;-65
2021/03/22 11:03:36;;;;;;;13.60;3.80;;;;;;;8.16;60.32;96845.94;5127709;27;20967;-64
2021/03/22 11:06:12;;;;;;;7.20;2.40;;;;;;;8.03;59.70;96845.91;5114179;28;20414;-63
2021/03/22 11:08:43;;;;;;;5.78;2.67;;;;;;;8.43;59.61;96841.56;5113806;27;20418;-62
2021/03/22 11:11:15;;;;;;;8.90;2.87;;;;;;;8.54;59.81;96845.41;5116110;27;20176;-65
2021/03/22 11:13:45;;;;;;;7.87;2.60;;;;;;;8.61;59.58;96843.59;5123569;27;20411;-62
2021/03/22 11:16:21;;;;;;;7.23;2.83;;;;;;;8.77;58.97;96849.22;5131594;27;20451;-60
2021/03/22 11:18:47;;;;;;;7.33;3.50;;;;;;;8.75;58.45;96845.22;5113822;27;21000;-57
2021/03/22 11:21:21;;;;;;;8.27;2.80;;;;;;;8.64;58.15;96851.84;5120877;27;20416;-58
2021/03/22 11:23:46;;;;;;;7.70;2.80;;;;;;;8.80;58.37;96845.41;5134075;27;20482;-58
2021/03/22 11:26:14;;;;;;;3.93;2.20;;;;;;;8.63;57.53;96845.00;5134399;27;20401;-61
2021/03/22 11:28:40;;;;;;;5.33;3.00;;;;;;;8.76;57.53;96850.25;5134131;27;20183;-59
2021/03/22 11:31:28;;;;;;;6.00;3.10;;;;;;;8.82;57.95;96848.63;5134196;27;20417;-65
2021/03/22 11:34:11;;;;;;;5.43;3.03;;;;;;;8.70;58.21;96843.19;5152090;27;20776;-60
2021/03/22 11:36:40;;;;;;;7.63;2.90;;;;;;;8.80;57.51;96842.78;5134354;27;20451;-60
2021/03/22 11:39:19;;;;;;;5.83;2.90;;;;;;;8.81;57.36;96834.72;5121483;28;20490;-60
2021/03/22 11:41:53;;;;;;;7.43;3.17;;;;;;;8.91;58.24;96835.09;5133250;28;20456;-59
2021/03/22 11:44:25;;;;;;;6.43;2.67;;;;;;;8.96;57.73;96834.50;5134258;27;20797;-57
2021/03/22 11:47:15;;;;;;;3.30;2.90;;;;;;;8.86;58.25;96829.69;5130611;27;20445;-62
2021/03/22 11:49:43;;;;;;;9.87;2.87;;;;;;;8.88;57.63;96837.31;5113586;28;20931;-59
2021/03/22 11:52:22;;;;;;;9.30;3.13;;;;;;;8.95;58.99;96828.47;5117790;28;20903;-58
2021/03/22 11:55:31;;;;;;;6.83;2.83;;;;;;;8.92;58.61;96828.06;5134179;27;20432;-57
2021/03/22 11:57:56;;;;;;;8.40;2.77;;;;;;;8.74;59.31;96833.13;5101841;28;20477;-57
2021/03/22 12:00:26;;;;;;;5.50;2.67;;;;;;;8.62;59.20;96832.13;5111864;28;20404;-58
2021/03/22 12:03:02;;;;;;;8.03;2.90;;;;;;;8.75;58.63;96835.53;5111003;28;20177;-58
2021/03/22 12:05:31;;;;;;;8.30;3.10;;;;;;;8.94;58.57;96826.84;5110517;28;20406;-57
2021/03/22 12:07:57;;;;;;;7.23;2.83;;;;;;;8.89;57.00;96823.25;5129905;27;20418;-58
2021/03/22 12:10:26;;;;;;;6.40;3.23;;;;;;;8.84;58.08;96828.28;5126960;27;20423;-58
2021/03/22 12:12:52;;;;;;;5.47;2.50;;;;;;;8.62;55.80;96822.44;5109506;28;20490;-58
2021/03/22 12:15:19;;;;;;;5.30;2.90;;;;;;;8.61;57.10;96822.63;5109898;28;20452;-58
2021/03/22 12:17:47;;;;;;;6.70;3.57;;;;;;;8.71;57.26;96821.25;5108078;28;20207;-58
2021/03/22 12:20:20;;;;;;;4.80;3.30;;;;;;;8.81;57.67;96820.81;5128104;28;20428;-58
2021/03/22 12:22:45;;;;;;;4.17;3.10;;;;;;;8.79;57.39;96822.81;5110399;28;20405;-58
2021/03/22 12:25:23;;;;;;;4.40;3.47;;;;;;;8.63;56.56;96823.25;5121874;27;20492;-57
2021/03/22 12:27:51;;;;;;;5.33;4.23;;;;;;;8.45;58.30;96823.84;5133903;27;20165;-58
2021/03/22 12:30:16;;;;;;;7.90;3.70;;;;;;;8.39;58.48;96823.84;5134160;27;20402;-58
2021/03/22 12:32:42;;;;;;;11.00;3.63;;;;;;;8.38;57.77;96815.19;5132451;27;20422;-58
2021/03/22 12:35:15;;;;;;;5.37;2.90;;;;;;;8.11;58.22;96819.56;5130927;27;20256;-58
2021/03/22 12:37:44;;;;;;;7.10;3.20;;;;;;;8.27;58.33;96818.41;5131463;27;20200;-58
2021/03/22 12:40:11;;;;;;;7.33;3.10;;;;;;;8.21;59.38;96819.97;5123962;27;20443;-59
2021/03/22 12:42:39;;;;;;;5.13;2.70;;;;;;;8.20;59.54;96822.78;5113407;28;20420;-58
2021/03/22 12:45:06;;;;;;;5.23;2.50;;;;;;;7.98;60.75;96818.72;5119804;27;20421;-58
2021/03/22 12:47:33;;;;;;;6.20;2.70;;;;;;;8.15;59.76;96818.13;5133158;27;20440;-58